TUPJ/RAD METAR and TAF weather

Enter ICAO airport designator
Station Type Date Time Source
TUPJ METAR 2021/06/24 01:00 UTC NOAA

TUPJ 240100Z 10006KT 10SM SCT019 27/24 A3006 RMK Q1017 VIS16KM


Station Type Date Time Source
TUPJ Decoded METAR 2021/06/24 01:00 UTC NOAA

Beef Island, Tortola, British Virgin Islands (TUPJ) 18-27N 064-32W
Jun 23, 2021 - 09:00 PM EDT / 2021.06.24 0100 UTC
Wind: from the E (100 degrees) at 7 MPH (6 KT):0
Visibility: 10 mile(s):0
Sky conditions: partly cloudy
Temperature: 80 F (27 C)
Dew Point: 75 F (24 C)
Relative Humidity: 83%
Pressure (altimeter): 30.06 in. Hg (1017 hPa)
ob: TUPJ 240100Z 10006KT 10SM SCT019 27/24 A3006 RMK Q1017 VIS16KM
cycle: 1

Station Type Date Time Source
TUPJ TAF 2021/06/24 00:12 UTC NOAA

TAF
AMD TUPJ 240300Z 2400/2424 CNL

Example: see airport list